sensor_id;sensor_type;location;lat;lon;timestamp;P1;durP1;ratioP1;P2;durP2;ratioP2
39778;SDS011;25454;49.878;8.618;2023-03-07T00:02:58;28.63;;;19.53;;
39778;SDS011;25454;49.878;8.618;2023-03-07T00:07:59;28.77;;;19.93;;
39778;SDS011;25454;49.878;8.618;2023-03-07T00:13:00;27.20;;;19.20;;
39778;SDS011;25454;49.878;8.618;2023-03-07T00:18:00;27.00;;;19.03;;
39778;SDS011;25454;49.878;8.618;2023-03-07T00:23:01;28.43;;;19.33;;
39778;SDS011;25454;49.878;8.618;2023-03-07T00:28:02;29.83;;;19.53;;
39778;SDS011;25454;49.878;8.618;2023-03-07T00:33:02;24.13;;;18.03;;
39778;SDS011;25454;49.878;8.618;2023-03-07T00:38:03;26.53;;;18.27;;
39778;SDS011;25454;49.878;8.618;2023-03-07T00:43:03;26.43;;;17.93;;
39778;SDS011;25454;49.878;8.618;2023-03-07T00:48:04;27.53;;;18.60;;
39778;SDS011;25454;49.878;8.618;2023-03-07T00:53:04;27.73;;;18.93;;
39778;SDS011;25454;49.878;8.618;2023-03-07T00:58:05;28.17;;;17.93;;
39778;SDS011;25454;49.878;8.618;2023-03-07T01:03:06;28.80;;;18.43;;
39778;SDS011;25454;49.878;8.618;2023-03-07T01:08:09;27.20;;;19.13;;
39778;SDS011;25454;49.878;8.618;2023-03-07T01:13:10;27.40;;;17.53;;
39778;SDS011;25454;49.878;8.618;2023-03-07T01:18:11;27.73;;;17.70;;
39778;SDS011;25454;49.878;8.618;2023-03-07T01:23:12;31.40;;;19.87;;
39778;SDS011;25454;49.878;8.618;2023-03-07T01:28:13;28.50;;;19.27;;
39778;SDS011;25454;49.878;8.618;2023-03-07T01:33:13;29.03;;;18.67;;
39778;SDS011;25454;49.878;8.618;2023-03-07T01:38:14;27.10;;;18.57;;
39778;SDS011;25454;49.878;8.618;2023-03-07T01:48:23;29.30;;;19.73;;
39778;SDS011;25454;49.878;8.618;2023-03-07T01:53:24;29.83;;;20.40;;
39778;SDS011;25454;49.878;8.618;2023-03-07T01:58:24;28.40;;;18.80;;
39778;SDS011;25454;49.878;8.618;2023-03-07T02:03:28;27.53;;;17.90;;
39778;SDS011;25454;49.878;8.618;2023-03-07T02:08:34;27.93;;;18.77;;
39778;SDS011;25454;49.878;8.618;2023-03-07T02:13:36;26.83;;;18.47;;
39778;SDS011;25454;49.878;8.618;2023-03-07T02:18:39;28.27;;;18.50;;
39778;SDS011;25454;49.878;8.618;2023-03-07T02:23:50;30.43;;;19.73;;
39778;SDS011;25454;49.878;8.618;2023-03-07T02:29:02;31.67;;;20.13;;
39778;SDS011;25454;49.878;8.618;2023-03-07T02:34:02;27.97;;;18.93;;
39778;SDS011;25454;49.878;8.618;2023-03-07T02:39:15;30.47;;;19.67;;
39778;SDS011;25454;49.878;8.618;2023-03-07T02:44:17;25.50;;;18.03;;
39778;SDS011;25454;49.878;8.618;2023-03-07T02:49:18;23.70;;;17.57;;
39778;SDS011;25454;49.878;8.618;2023-03-07T02:54:18;22.20;;;16.40;;
39778;SDS011;25454;49.878;8.618;2023-03-07T02:59:19;23.63;;;16.77;;
39778;SDS011;25454;49.878;8.618;2023-03-07T03:04:20;20.87;;;15.20;;
39778;SDS011;25454;49.878;8.618;2023-03-07T03:09:20;22.97;;;15.53;;
39778;SDS011;25454;49.878;8.618;2023-03-07T03:14:21;19.03;;;15.07;;
39778;SDS011;25454;49.878;8.618;2023-03-07T03:19:21;19.17;;;14.20;;
39778;SDS011;25454;49.878;8.618;2023-03-07T03:24:22;20.03;;;13.43;;
39778;SDS011;25454;49.878;8.618;2023-03-07T03:29:22;18.70;;;13.53;;
39778;SDS011;25454;49.878;8.618;2023-03-07T03:34:27;18.37;;;13.17;;
39778;SDS011;25454;49.878;8.618;2023-03-07T03:39:27;17.33;;;12.67;;
39778;SDS011;25454;49.878;8.618;2023-03-07T03:44:28;17.77;;;13.07;;
39778;SDS011;25454;49.878;8.618;2023-03-07T03:49:29;17.17;;;12.20;;
39778;SDS011;25454;49.878;8.618;2023-03-07T03:54:30;13.63;;;11.23;;
39778;SDS011;25454;49.878;8.618;2023-03-07T03:59:31;14.47;;;11.80;;
39778;SDS011;25454;49.878;8.618;2023-03-07T04:04:31;18.27;;;12.67;;
39778;SDS011;25454;49.878;8.618;2023-03-07T04:09:32;17.83;;;13.63;;
39778;SDS011;25454;49.878;8.618;2023-03-07T04:14:32;17.30;;;12.93;;
39778;SDS011;25454;49.878;8.618;2023-03-07T04:19:33;16.73;;;12.67;;
39778;SDS011;25454;49.878;8.618;2023-03-07T04:24:33;17.33;;;12.60;;
39778;SDS011;25454;49.878;8.618;2023-03-07T04:29:34;17.53;;;12.63;;
39778;SDS011;25454;49.878;8.618;2023-03-07T04:34:34;15.07;;;12.07;;
39778;SDS011;25454;49.878;8.618;2023-03-07T04:39:35;15.43;;;12.70;;
39778;SDS011;25454;49.878;8.618;2023-03-07T04:44:36;16.73;;;13.03;;
39778;SDS011;25454;49.878;8.618;2023-03-07T04:49:39;17.67;;;13.27;;
39778;SDS011;25454;49.878;8.618;2023-03-07T04:54:40;17.90;;;12.57;;
39778;SDS011;25454;49.878;8.618;2023-03-07T04:59:40;16.30;;;12.73;;
39778;SDS011;25454;49.878;8.618;2023-03-07T05:04:41;17.90;;;13.33;;
39778;SDS011;25454;49.878;8.618;2023-03-07T05:09:45;17.77;;;13.33;;
39778;SDS011;25454;49.878;8.618;2023-03-07T05:14:45;20.10;;;13.80;;
39778;SDS011;25454;49.878;8.618;2023-03-07T05:19:46;19.87;;;13.83;;
39778;SDS011;25454;49.878;8.618;2023-03-07T05:24:46;17.03;;;13.10;;
39778;SDS011;25454;49.878;8.618;2023-03-07T05:29:47;20.77;;;14.50;;
39778;SDS011;25454;49.878;8.618;2023-03-07T05:34:47;18.97;;;14.23;;
39778;SDS011;25454;49.878;8.618;2023-03-07T05:39:48;19.03;;;14.10;;
39778;SDS011;25454;49.878;8.618;2023-03-07T05:44:49;20.93;;;15.23;;
39778;SDS011;25454;49.878;8.618;2023-03-07T05:49:49;22.77;;;15.07;;
39778;SDS011;25454;49.878;8.618;2023-03-07T05:54:50;23.00;;;15.73;;
39778;SDS011;25454;49.878;8.618;2023-03-07T05:59:51;20.77;;;15.77;;
39778;SDS011;25454;49.878;8.618;2023-03-07T06:04:51;21.83;;;15.50;;
39778;SDS011;25454;49.878;8.618;2023-03-07T06:09:54;22.17;;;14.97;;
39778;SDS011;25454;49.878;8.618;2023-03-07T06:14:55;22.77;;;15.20;;
39778;SDS011;25454;49.878;8.618;2023-03-07T06:19:56;21.10;;;14.43;;
39778;SDS011;25454;49.878;8.618;2023-03-07T06:24:56;22.37;;;15.00;;
39778;SDS011;25454;49.878;8.618;2023-03-07T06:29:57;21.23;;;15.10;;
39778;SDS011;25454;49.878;8.618;2023-03-07T06:34:57;21.47;;;14.13;;
39778;SDS011;25454;49.878;8.618;2023-03-07T06:39:58;20.13;;;13.63;;
39778;SDS011;25454;49.878;8.618;2023-03-07T06:44:59;25.70;;;15.60;;
39778;SDS011;25454;49.878;8.618;2023-03-07T06:49:59;19.20;;;14.00;;
39778;SDS011;25454;49.878;8.618;2023-03-07T06:55:01;19.00;;;13.57;;
39778;SDS011;25454;49.878;8.618;2023-03-07T07:00:03;18.80;;;13.27;;
39778;SDS011;25454;49.878;8.618;2023-03-07T07:05:05;18.30;;;13.07;;
39778;SDS011;25454;49.878;8.618;2023-03-07T07:10:06;17.67;;;13.13;;
39778;SDS011;25454;49.878;8.618;2023-03-07T07:15:08;18.07;;;12.50;;
39778;SDS011;25454;49.878;8.618;2023-03-07T07:20:09;20.27;;;13.27;;
39778;SDS011;25454;49.878;8.618;2023-03-07T07:25:10;16.17;;;12.00;;
39778;SDS011;25454;49.878;8.618;2023-03-07T07:30:11;15.40;;;11.93;;
39778;SDS011;25454;49.878;8.618;2023-03-07T07:35:14;15.27;;;10.63;;
39778;SDS011;25454;49.878;8.618;2023-03-07T07:40:14;19.23;;;11.10;;
39778;SDS011;25454;49.878;8.618;2023-03-07T07:45:15;15.83;;;10.83;;
39778;SDS011;25454;49.878;8.618;2023-03-07T07:50:16;15.70;;;10.97;;
39778;SDS011;25454;49.878;8.618;2023-03-07T07:55:17;14.00;;;10.27;;
39778;SDS011;25454;49.878;8.618;2023-03-07T08:00:18;13.20;;;9.47;;
39778;SDS011;25454;49.878;8.618;2023-03-07T08:05:21;13.03;;;9.57;;
39778;SDS011;25454;49.878;8.618;2023-03-07T08:10:22;11.00;;;9.27;;
39778;SDS011;25454;49.878;8.618;2023-03-07T08:15:23;11.37;;;9.80;;
39778;SDS011;25454;49.878;8.618;2023-03-07T08:20:23;11.90;;;9.87;;
39778;SDS011;25454;49.878;8.618;2023-03-07T08:25:24;14.53;;;9.93;;
39778;SDS011;25454;49.878;8.618;2023-03-07T08:30:26;12.23;;;9.23;;
39778;SDS011;25454;49.878;8.618;2023-03-07T08:35:28;15.23;;;9.50;;
39778;SDS011;25454;49.878;8.618;2023-03-07T08:40:29;11.63;;;9.40;;
39778;SDS011;25454;49.878;8.618;2023-03-07T08:45:30;11.57;;;8.93;;
39778;SDS011;25454;49.878;8.618;2023-03-07T08:50:31;11.20;;;8.93;;
39778;SDS011;25454;49.878;8.618;2023-03-07T08:55:33;14.57;;;9.27;;
39778;SDS011;25454;49.878;8.618;2023-03-07T09:00:35;12.43;;;9.07;;
39778;SDS011;25454;49.878;8.618;2023-03-07T09:05:36;12.63;;;9.27;;
39778;SDS011;25454;49.878;8.618;2023-03-07T09:10:40;12.07;;;8.27;;
39778;SDS011;25454;49.878;8.618;2023-03-07T09:15:40;11.07;;;8.50;;
39778;SDS011;25454;49.878;8.618;2023-03-07T09:20:41;10.47;;;8.00;;
39778;SDS011;25454;49.878;8.618;2023-03-07T09:25:42;10.03;;;7.40;;
39778;SDS011;25454;49.878;8.618;2023-03-07T09:30:43;11.83;;;8.63;;
39778;SDS011;25454;49.878;8.618;2023-03-07T09:35:44;11.23;;;7.20;;
39778;SDS011;25454;49.878;8.618;2023-03-07T09:40:45;8.90;;;6.80;;
39778;SDS011;25454;49.878;8.618;2023-03-07T09:51:39;9.43;;;6.43;;
39778;SDS011;25454;49.878;8.618;2023-03-07T09:56:42;9.67;;;6.73;;
39778;SDS011;25454;49.878;8.618;2023-03-07T10:01:50;12.03;;;6.53;;
39778;SDS011;25454;49.878;8.618;2023-03-07T10:06:59;11.20;;;6.30;;
39778;SDS011;25454;49.878;8.618;2023-03-07T10:12:37;8.50;;;6.37;;
39778;SDS011;25454;49.878;8.618;2023-03-07T10:17:50;8.33;;;5.97;;
39778;SDS011;25454;49.878;8.618;2023-03-07T10:23:23;11.20;;;6.30;;
39778;SDS011;25454;49.878;8.618;2023-03-07T10:28:31;9.53;;;6.67;;
39778;SDS011;25454;49.878;8.618;2023-03-07T10:33:34;8.23;;;6.40;;
39778;SDS011;25454;49.878;8.618;2023-03-07T10:44:01;13.43;;;6.47;;
39778;SDS011;25454;49.878;8.618;2023-03-07T10:54:07;9.30;;;6.40;;
39778;SDS011;25454;49.878;8.618;2023-03-07T10:59:13;16.67;;;6.43;;
39778;SDS011;25454;49.878;8.618;2023-03-07T11:04:26;9.17;;;6.37;;
39778;SDS011;25454;49.878;8.618;2023-03-07T11:09:29;8.23;;;5.20;;
39778;SDS011;25454;49.878;8.618;2023-03-07T11:14:45;7.57;;;5.70;;
39778;SDS011;25454;49.878;8.618;2023-03-07T11:19:46;7.50;;;6.07;;
39778;SDS011;25454;49.878;8.618;2023-03-07T11:35:21;8.63;;;6.03;;
39778;SDS011;25454;49.878;8.618;2023-03-07T11:50:59;11.47;;;6.23;;
39778;SDS011;25454;49.878;8.618;2023-03-07T11:56:22;8.40;;;5.90;;
39778;SDS011;25454;49.878;8.618;2023-03-07T12:12:22;10.13;;;6.93;;
39778;SDS011;25454;49.878;8.618;2023-03-07T12:18:01;7.90;;;6.53;;
39778;SDS011;25454;49.878;8.618;2023-03-07T12:23:17;7.77;;;5.97;;
39778;SDS011;25454;49.878;8.618;2023-03-07T12:28:32;10.07;;;7.10;;
39778;SDS011;25454;49.878;8.618;2023-03-07T12:33:58;13.17;;;6.73;;
39778;SDS011;25454;49.878;8.618;2023-03-07T12:39:09;10.73;;;7.03;;
39778;SDS011;25454;49.878;8.618;2023-03-07T12:55:23;10.67;;;7.30;;
39778;SDS011;25454;49.878;8.618;2023-03-07T13:00:23;9.07;;;7.00;;
39778;SDS011;25454;49.878;8.618;2023-03-07T13:05:25;8.60;;;6.47;;
39778;SDS011;25454;49.878;8.618;2023-03-07T13:10:26;9.27;;;6.97;;
39778;SDS011;25454;49.878;8.618;2023-03-07T13:16:31;11.07;;;6.67;;
39778;SDS011;25454;49.878;8.618;2023-03-07T13:21:05;8.60;;;6.70;;
39778;SDS011;25454;49.878;8.618;2023-03-07T13:26:12;9.50;;;6.33;;
39778;SDS011;25454;49.878;8.618;2023-03-07T13:31:22;8.50;;;7.00;;
39778;SDS011;25454;49.878;8.618;2023-03-07T13:36:32;9.03;;;7.23;;
39778;SDS011;25454;49.878;8.618;2023-03-07T13:41:46;10.47;;;6.93;;
39778;SDS011;25454;49.878;8.618;2023-03-07T13:46:48;11.03;;;8.43;;
39778;SDS011;25454;49.878;8.618;2023-03-07T13:57:32;11.30;;;7.97;;
39778;SDS011;25454;49.878;8.618;2023-03-07T14:02:36;10.47;;;8.13;;
39778;SDS011;25454;49.878;8.618;2023-03-07T14:07:40;11.93;;;8.30;;
39778;SDS011;25454;49.878;8.618;2023-03-07T14:18:38;10.13;;;7.43;;
39778;SDS011;25454;49.878;8.618;2023-03-07T14:24:01;9.07;;;7.10;;
39778;SDS011;25454;49.878;8.618;2023-03-07T14:29:25;11.00;;;8.50;;
39778;SDS011;25454;49.878;8.618;2023-03-07T14:34:32;11.57;;;7.50;;
39778;SDS011;25454;49.878;8.618;2023-03-07T14:55:14;9.27;;;7.93;;
39778;SDS011;25454;49.878;8.618;2023-03-07T15:00:22;11.50;;;7.93;;
39778;SDS011;25454;49.878;8.618;2023-03-07T15:05:27;10.10;;;8.03;;
39778;SDS011;25454;49.878;8.618;2023-03-07T15:10:35;10.20;;;7.13;;
39778;SDS011;25454;49.878;8.618;2023-03-07T15:15:44;9.00;;;6.60;;
39778;SDS011;25454;49.878;8.618;2023-03-07T15:20:48;8.30;;;6.33;;
39778;SDS011;25454;49.878;8.618;2023-03-07T15:25:50;8.03;;;6.00;;
39778;SDS011;25454;49.878;8.618;2023-03-07T15:30:52;9.57;;;5.87;;
39778;SDS011;25454;49.878;8.618;2023-03-07T15:41:23;7.60;;;5.60;;
39778;SDS011;25454;49.878;8.618;2023-03-07T15:46:29;8.40;;;6.60;;
39778;SDS011;25454;49.878;8.618;2023-03-07T15:51:35;8.47;;;6.83;;
39778;SDS011;25454;49.878;8.618;2023-03-07T15:56:36;9.27;;;6.33;;
39778;SDS011;25454;49.878;8.618;2023-03-07T16:01:39;11.70;;;7.63;;
39778;SDS011;25454;49.878;8.618;2023-03-07T16:06:41;10.90;;;7.37;;
39778;SDS011;25454;49.878;8.618;2023-03-07T16:11:45;10.70;;;7.43;;
39778;SDS011;25454;49.878;8.618;2023-03-07T16:16:46;10.87;;;7.53;;
39778;SDS011;25454;49.878;8.618;2023-03-07T16:21:47;9.10;;;7.27;;
39778;SDS011;25454;49.878;8.618;2023-03-07T16:26:48;11.03;;;7.83;;
39778;SDS011;25454;49.878;8.618;2023-03-07T16:31:49;11.80;;;8.13;;
39778;SDS011;25454;49.878;8.618;2023-03-07T16:36:49;10.40;;;8.47;;
39778;SDS011;25454;49.878;8.618;2023-03-07T16:41:50;13.10;;;8.43;;
39778;SDS011;25454;49.878;8.618;2023-03-07T16:47:04;11.90;;;8.10;;
39778;SDS011;25454;49.878;8.618;2023-03-07T16:52:11;12.30;;;7.77;;
39778;SDS011;25454;49.878;8.618;2023-03-07T16:57:13;10.23;;;8.07;;
39778;SDS011;25454;49.878;8.618;2023-03-07T17:02:16;13.90;;;7.70;;
39778;SDS011;25454;49.878;8.618;2023-03-07T17:07:20;11.23;;;7.97;;
39778;SDS011;25454;49.878;8.618;2023-03-07T17:12:33;10.53;;;7.70;;
39778;SDS011;25454;49.878;8.618;2023-03-07T17:17:34;9.97;;;7.67;;
39778;SDS011;25454;49.878;8.618;2023-03-07T17:22:35;13.63;;;7.90;;
39778;SDS011;25454;49.878;8.618;2023-03-07T17:27:37;12.33;;;7.80;;
39778;SDS011;25454;49.878;8.618;2023-03-07T17:32:42;12.53;;;7.63;;
39778;SDS011;25454;49.878;8.618;2023-03-07T17:37:42;12.53;;;7.77;;
39778;SDS011;25454;49.878;8.618;2023-03-07T17:42:46;11.97;;;7.87;;
39778;SDS011;25454;49.878;8.618;2023-03-07T17:47:50;12.57;;;7.50;;
39778;SDS011;25454;49.878;8.618;2023-03-07T17:52:53;10.43;;;7.53;;
39778;SDS011;25454;49.878;8.618;2023-03-07T17:57:54;9.63;;;7.47;;
39778;SDS011;25454;49.878;8.618;2023-03-07T18:02:54;10.57;;;7.67;;
39778;SDS011;25454;49.878;8.618;2023-03-07T18:07:55;11.57;;;7.77;;
39778;SDS011;25454;49.878;8.618;2023-03-07T18:12:56;11.07;;;7.53;;
39778;SDS011;25454;49.878;8.618;2023-03-07T18:17:57;9.50;;;7.07;;
39778;SDS011;25454;49.878;8.618;2023-03-07T18:22:58;11.80;;;7.07;;
39778;SDS011;25454;49.878;8.618;2023-03-07T18:28:01;10.73;;;7.20;;
39778;SDS011;25454;49.878;8.618;2023-03-07T18:33:03;9.30;;;7.10;;
39778;SDS011;25454;49.878;8.618;2023-03-07T18:38:04;8.87;;;6.87;;
39778;SDS011;25454;49.878;8.618;2023-03-07T18:43:05;12.73;;;7.53;;
39778;SDS011;25454;49.878;8.618;2023-03-07T18:48:05;10.87;;;7.30;;
39778;SDS011;25454;49.878;8.618;2023-03-07T18:53:06;10.53;;;6.83;;
39778;SDS011;25454;49.878;8.618;2023-03-07T18:58:06;10.90;;;7.00;;
39778;SDS011;25454;49.878;8.618;2023-03-07T19:03:07;10.13;;;7.57;;
39778;SDS011;25454;49.878;8.618;2023-03-07T19:08:08;12.97;;;7.03;;
39778;SDS011;25454;49.878;8.618;2023-03-07T19:13:08;8.80;;;6.67;;
39778;SDS011;25454;49.878;8.618;2023-03-07T19:18:09;9.83;;;7.13;;
39778;SDS011;25454;49.878;8.618;2023-03-07T19:23:10;9.27;;;7.20;;
39778;SDS011;25454;49.878;8.618;2023-03-07T19:28:10;11.10;;;6.80;;
39778;SDS011;25454;49.878;8.618;2023-03-07T19:33:11;10.30;;;6.97;;
39778;SDS011;25454;49.878;8.618;2023-03-07T19:38:13;10.00;;;7.00;;
39778;SDS011;25454;49.878;8.618;2023-03-07T19:43:13;13.50;;;7.87;;
39778;SDS011;25454;49.878;8.618;2023-03-07T19:48:14;12.40;;;7.80;;
39778;SDS011;25454;49.878;8.618;2023-03-07T19:53:14;8.70;;;7.00;;
39778;SDS011;25454;49.878;8.618;2023-03-07T19:58:15;10.47;;;7.47;;
39778;SDS011;25454;49.878;8.618;2023-03-07T20:03:17;9.47;;;7.20;;
39778;SDS011;25454;49.878;8.618;2023-03-07T20:08:18;9.57;;;7.43;;
39778;SDS011;25454;49.878;8.618;2023-03-07T20:13:19;9.10;;;6.93;;
39778;SDS011;25454;49.878;8.618;2023-03-07T20:18:20;14.87;;;7.43;;
39778;SDS011;25454;49.878;8.618;2023-03-07T20:23:21;10.40;;;7.20;;
39778;SDS011;25454;49.878;8.618;2023-03-07T20:28:25;10.33;;;7.27;;
39778;SDS011;25454;49.878;8.618;2023-03-07T20:33:28;9.37;;;7.70;;
39778;SDS011;25454;49.878;8.618;2023-03-07T20:38:32;10.47;;;8.90;;
39778;SDS011;25454;49.878;8.618;2023-03-07T20:43:34;9.50;;;7.47;;
39778;SDS011;25454;49.878;8.618;2023-03-07T20:48:35;9.60;;;7.10;;
39778;SDS011;25454;49.878;8.618;2023-03-07T20:53:36;11.00;;;7.50;;
39778;SDS011;25454;49.878;8.618;2023-03-07T20:58:37;11.23;;;7.67;;
39778;SDS011;25454;49.878;8.618;2023-03-07T21:03:38;11.10;;;7.83;;
39778;SDS011;25454;49.878;8.618;2023-03-07T21:08:38;11.40;;;8.20;;
39778;SDS011;25454;49.878;8.618;2023-03-07T21:13:40;10.60;;;7.60;;
39778;SDS011;25454;49.878;8.618;2023-03-07T21:18:41;12.33;;;8.40;;
39778;SDS011;25454;49.878;8.618;2023-03-07T21:23:42;11.93;;;8.33;;
39778;SDS011;25454;49.878;8.618;2023-03-07T21:28:44;10.40;;;8.07;;
39778;SDS011;25454;49.878;8.618;2023-03-07T21:33:47;11.30;;;8.10;;
39778;SDS011;25454;49.878;8.618;2023-03-07T21:38:50;10.43;;;7.90;;
39778;SDS011;25454;49.878;8.618;2023-03-07T21:43:53;10.03;;;8.37;;
39778;SDS011;25454;49.878;8.618;2023-03-07T21:48:56;12.13;;;8.73;;
39778;SDS011;25454;49.878;8.618;2023-03-07T21:53:58;10.77;;;8.23;;
39778;SDS011;25454;49.878;8.618;2023-03-07T21:58:58;10.90;;;7.97;;
39778;SDS011;25454;49.878;8.618;2023-03-07T22:03:59;12.77;;;7.87;;
39778;SDS011;25454;49.878;8.618;2023-03-07T22:09:00;11.60;;;8.37;;
39778;SDS011;25454;49.878;8.618;2023-03-07T22:14:00;12.20;;;8.33;;
39778;SDS011;25454;49.878;8.618;2023-03-07T22:19:01;12.47;;;8.00;;
39778;SDS011;25454;49.878;8.618;2023-03-07T22:24:01;11.33;;;7.80;;
39778;SDS011;25454;49.878;8.618;2023-03-07T22:29:02;10.53;;;8.50;;
39778;SDS011;25454;49.878;8.618;2023-03-07T22:34:03;13.97;;;8.30;;
39778;SDS011;25454;49.878;8.618;2023-03-07T22:39:04;13.27;;;8.67;;
39778;SDS011;25454;49.878;8.618;2023-03-07T22:44:06;10.70;;;6.57;;
39778;SDS011;25454;49.878;8.618;2023-03-07T22:49:10;6.03;;;5.40;;
39778;SDS011;25454;49.878;8.618;2023-03-07T22:54:11;5.83;;;4.60;;
39778;SDS011;25454;49.878;8.618;2023-03-07T22:59:12;4.53;;;4.13;;
39778;SDS011;25454;49.878;8.618;2023-03-07T23:04:13;6.30;;;4.87;;
39778;SDS011;25454;49.878;8.618;2023-03-07T23:09:13;6.23;;;4.77;;
39778;SDS011;25454;49.878;8.618;2023-03-07T23:14:14;9.17;;;4.93;;
39778;SDS011;25454;49.878;8.618;2023-03-07T23:19:15;4.80;;;3.87;;
39778;SDS011;25454;49.878;8.618;2023-03-07T23:24:15;5.73;;;4.30;;
39778;SDS011;25454;49.878;8.618;2023-03-07T23:29:16;4.23;;;3.77;;
39778;SDS011;25454;49.878;8.618;2023-03-07T23:34:17;4.47;;;4.07;;
39778;SDS011;25454;49.878;8.618;2023-03-07T23:39:19;4.07;;;3.67;;
39778;SDS011;25454;49.878;8.618;2023-03-07T23:44:20;3.97;;;3.43;;
39778;SDS011;25454;49.878;8.618;2023-03-07T23:49:20;3.50;;;3.20;;
39778;SDS011;25454;49.878;8.618;2023-03-07T23:54:21;3.67;;;3.30;;
39778;SDS011;25454;49.878;8.618;2023-03-07T23:59:21;3.60;;;3.30;;
